Terminal Aerodrome Forecast
Issued by NWS Detroit/Pontiac, MI

Home | Current Version | Previous Version | Text Only | Print | Product List | Glossary On
Versions: 1 2 3 4 5 6 7 8 9 10 11 12 13
000
FTUS43 KDTX 212320
TAFFNT
TAF
KFNT 212320Z 2200/2224 VRB04KT P6SM SCT150 BKN250
     FM220800 VRB03KT P6SM BKN080 OVC150
      TEMPO 2209/2213 6SM -SHRA BKN060 OVC080
     FM221400 16006KT P6SM SCT025 BKN040
     FM221900 21008KT P6SM BKN045=

USA.gov is the U.S. government's official web portal to all federal, state and local government web resources and services.